Time;durP1;ratioP1;P1;durP2;ratioP2;P2;SDS_P1;SDS_P2;PMS_P1;PMS_P2;Temp;Humidity;BMP_temperature;BMP_pressure;BME280_temperature;BME280_humidity;BME280_pressure;Samples;Min_cycle;Max_cycle;Signal;HPM_P1;HPM_P2
2021/09/21 00:01:33;;;;;;;5.60;3.58;;;;;;;10.66;100.00;101799.47;4997580;28;20033;-82
2021/09/21 00:03:59;;;;;;;6.25;3.83;;;;;;;10.68;100.00;101801.25;5011034;28;20045;-81
2021/09/21 00:06:26;;;;;;;7.20;4.18;;;;;;;10.66;100.00;101804.75;5012695;28;20414;-82
2021/09/21 00:08:53;;;;;;;5.35;3.40;;;;;;;10.64;100.00;101793.31;5011397;28;20124;-81
2021/09/21 00:11:20;;;;;;;6.10;3.90;;;;;;;10.61;100.00;101799.50;4995537;28;20132;-83
2021/09/21 00:13:47;;;;;;;6.75;3.70;;;;;;;10.60;100.00;101797.75;4994952;28;20136;-84
2021/09/21 00:16:14;;;;;;;4.93;3.40;;;;;;;10.63;100.00;101799.50;5008341;28;20041;-84
2021/09/21 00:18:41;;;;;;;5.97;4.22;;;;;;;10.66;100.00;101800.34;4994401;28;20851;-83
2021/09/21 00:21:07;;;;;;;8.10;3.95;;;;;;;10.64;100.00;101806.53;5029383;28;20045;-83
2021/09/21 00:23:34;;;;;;;6.57;3.55;;;;;;;10.61;100.00;101804.78;5024296;28;20073;-83
2021/09/21 00:26:01;;;;;;;6.32;3.63;;;;;;;10.60;100.00;101804.78;5007201;28;20095;-82
2021/09/21 00:28:28;;;;;;;6.10;4.90;;;;;;;10.58;100.00;101810.06;5004004;28;20560;-82
2021/09/21 00:30:57;;;;;;;5.60;3.47;;;;;;;10.64;100.00;101803.88;4986423;28;20049;-82
2021/09/21 00:33:24;;;;;;;5.25;3.95;;;;;;;10.57;100.00;101799.50;4997307;28;20044;-83
2021/09/21 00:35:51;;;;;;;5.15;3.58;;;;;;;10.63;100.00;101807.41;4994533;28;20033;-82
2021/09/21 00:38:21;;;;;;;5.78;3.22;;;;;;;10.68;100.00;101809.19;5007613;28;20037;-82
2021/09/21 00:40:48;;;;;;;5.72;4.22;;;;;;;10.60;100.00;101821.53;4987717;28;20052;-83
2021/09/21 00:43:22;;;;;;;5.32;3.75;;;;;;;10.62;100.00;101822.41;5008421;28;20037;-83
2021/09/21 00:45:49;;;;;;;;;;;;;;;10.59;100.00;101819.75;5012186;28;20639;-82
2021/09/21 00:48:16;;;;;;;9.13;3.90;;;;;;;10.56;100.00;101817.13;5022792;28;20392;-83
2021/09/21 00:50:43;;;;;;;6.68;4.25;;;;;;;10.58;100.00;101822.41;5007690;28;20041;-84
2021/09/21 00:53:09;;;;;;;5.90;3.63;;;;;;;10.63;100.00;101818.00;4994538;28;20041;-83
2021/09/21 00:55:36;;;;;;;5.13;3.88;;;;;;;10.69;100.00;101816.22;5012582;28;20059;-84
2021/09/21 00:58:03;;;;;;;7.63;4.20;;;;;;;10.70;100.00;101817.97;4993686;28;20662;-83
2021/09/21 01:00:30;;;;;;;5.28;4.03;;;;;;;10.66;100.00;101821.50;4989912;28;20057;-83
2021/09/21 01:02:56;;;;;;;5.43;3.67;;;;;;;10.70;100.00;101815.34;5007580;28;20155;-82
2021/09/21 01:05:23;;;;;;;6.43;3.83;;;;;;;10.63;100.00;101823.28;4994514;28;20041;-81
2021/09/21 01:07:50;;;;;;;5.25;3.70;;;;;;;10.57;100.00;101818.00;4993937;28;20048;-82
2021/09/21 01:10:24;;;;;;;6.15;3.75;;;;;;;10.60;100.00;101813.59;5003042;28;20056;-82
2021/09/21 01:12:52;;;;;;;6.50;4.20;;;;;;;10.54;100.00;101816.25;5007406;28;20127;-81
2021/09/21 01:15:19;;;;;;;7.30;4.03;;;;;;;10.55;100.00;101820.66;5005170;28;20049;-81
2021/09/21 01:17:46;;;;;;;5.30;4.30;;;;;;;10.59;100.00;101827.66;5003675;28;21589;-80
2021/09/21 01:20:14;;;;;;;6.00;3.75;;;;;;;10.54;100.00;101832.09;5005348;28;20041;-81
2021/09/21 01:22:41;;;;;;;5.38;3.70;;;;;;;10.55;100.00;101825.06;5008953;28;20049;-82
2021/09/21 01:25:09;;;;;;;6.18;3.50;;;;;;;10.55;100.00;101823.28;4993070;28;20049;-82
2021/09/21 01:27:36;;;;;;;5.15;3.40;;;;;;;10.51;100.00;101826.84;5064044;23;20068;-78
2021/09/21 01:30:05;;;;;;;5.68;3.78;;;;;;;10.51;100.00;101825.91;5001660;28;20045;-79
2021/09/21 01:32:32;;;;;;;5.57;3.55;;;;;;;10.47;100.00;101825.06;5028053;28;20045;-79
2021/09/21 01:35:00;;;;;;;5.38;3.88;;;;;;;10.47;100.00;101822.41;5013879;28;20038;-80
2021/09/21 01:37:28;;;;;;;4.80;3.25;;;;;;;10.45;100.00;101820.66;5012761;28;20040;-79
2021/09/21 01:39:55;;;;;;;4.88;3.65;;;;;;;10.47;100.00;101821.53;5043690;28;20516;-78
2021/09/21 01:42:22;;;;;;;6.90;4.68;;;;;;;10.48;100.00;101824.19;5010261;28;20049;-79
2021/09/21 01:44:49;;;;;;;5.78;4.00;;;;;;;10.43;100.00;101826.84;5015770;28;20052;-79
2021/09/21 01:47:17;;;;;;;6.68;4.13;;;;;;;10.40;100.00;101821.53;5010167;28;20521;-78
2021/09/21 01:50:01;;;;;;;5.07;3.58;;;;;;;10.43;100.00;101818.91;5009682;28;20045;-79
2021/09/21 01:52:35;;;;;;;5.87;3.90;;;;;;;10.41;100.00;101823.28;5013547;28;20579;-79
2021/09/21 01:55:11;;;;;;;6.85;4.18;;;;;;;10.37;100.00;101820.69;5008835;28;20045;-78
2021/09/21 02:00:23;;;;;;;5.35;4.00;;;;;;;10.35;100.00;101812.75;5023105;28;20037;-79
2021/09/21 02:02:50;;;;;;;7.07;3.40;;;;;;;10.39;100.00;101816.25;5013424;28;20044;-78
2021/09/21 02:05:17;;;;;;;6.65;4.18;;;;;;;10.36;100.00;101811.88;5038438;28;20522;-78
2021/09/21 02:07:43;;;;;;;6.55;3.88;;;;;;;10.36;100.00;101816.28;4999251;28;20047;-80
2021/09/21 02:10:10;;;;;;;6.25;4.13;;;;;;;10.38;100.00;101809.22;5000960;28;20099;-78
2021/09/21 02:12:37;;;;;;;6.75;4.97;;;;;;;10.32;100.00;101810.09;5032636;28;20063;-78
2021/09/21 02:15:05;;;;;;;5.20;3.72;;;;;;;10.36;100.00;101813.63;5032793;28;20049;-78
2021/09/21 02:17:32;;;;;;;5.25;4.07;;;;;;;10.32;100.00;101804.81;5020650;28;20037;-78
2021/09/21 02:19:59;;;;;;;4.70;3.67;;;;;;;10.30;100.00;101798.66;4998325;28;20037;-78
2021/09/21 02:22:26;;;;;;;5.55;4.65;;;;;;;10.29;100.00;101794.28;5013457;28;20056;-79
2021/09/21 02:24:52;;;;;;;7.03;4.68;;;;;;;10.26;100.00;101793.41;5026502;28;20056;-78
2021/09/21 02:27:19;;;;;;;7.70;4.70;;;;;;;10.28;100.00;101810.13;5011466;28;20045;-79
2021/09/21 02:29:45;;;;;;;6.57;4.40;;;;;;;10.26;100.00;101796.03;5030554;28;20044;-80
2021/09/21 02:32:12;;;;;;;5.72;3.95;;;;;;;10.26;100.00;101802.22;5012516;28;20533;-78
2021/09/21 02:34:44;;;;;;;7.07;4.35;;;;;;;10.28;100.00;101807.47;4995475;28;20045;-79
2021/09/21 02:37:13;;;;;;;5.72;4.75;;;;;;;10.25;100.00;101812.75;5030373;28;20049;-79
2021/09/21 02:39:40;;;;;;;7.22;4.57;;;;;;;10.24;100.00;101813.63;5029080;28;20037;-78
2021/09/21 02:42:06;;;;;;;7.72;4.32;;;;;;;10.19;100.00;101821.53;5014195;28;20049;-80
2021/09/21 02:44:33;;;;;;;6.75;4.15;;;;;;;10.13;100.00;101818.91;5025696;28;20448;-78
2021/09/21 02:47:01;;;;;;;4.78;4.03;;;;;;;10.14;100.00;101820.66;5024959;28;20049;-80
2021/09/21 02:49:27;;;;;;;6.80;4.53;;;;;;;10.20;100.00;101820.66;5030204;28;20038;-78
2021/09/21 02:51:54;;;;;;;6.30;4.32;;;;;;;10.30;100.00;101824.19;4991862;28;20067;-80
2021/09/21 02:54:21;;;;;;;6.28;4.32;;;;;;;10.17;100.00;101823.28;5030189;28;20119;-80
2021/09/21 02:56:47;;;;;;;6.32;3.90;;;;;;;10.11;100.00;101829.47;5013341;28;20044;-79
2021/09/21 02:59:14;;;;;;;5.43;3.95;;;;;;;10.15;100.00;101828.56;4986176;28;20045;-78
2021/09/21 03:01:41;;;;;;;5.45;4.03;;;;;;;10.11;100.00;101824.19;5027241;28;20486;-79
2021/09/21 03:04:32;;;;;;;8.18;4.05;;;;;;;10.16;100.00;101816.25;5024782;28;20067;-79
2021/09/21 03:07:03;;;;;;;5.43;4.47;;;;;;;10.07;100.00;101814.47;5032738;28;20465;-80
2021/09/21 03:17:28;;;;;;;6.00;4.50;;;;;;;10.04;100.00;101832.97;5031987;28;20040;-79
2021/09/21 03:20:00;;;;;;;6.53;4.03;;;;;;;10.01;100.00;101825.06;5008816;28;20040;-79
2021/09/21 03:22:27;;;;;;;4.90;4.13;;;;;;;10.01;100.00;101830.34;4999138;28;20386;-78
2021/09/21 03:24:55;;;;;;;6.97;4.15;;;;;;;10.03;100.00;101832.97;5031870;28;20044;-79
2021/09/21 03:27:22;;;;;;;4.95;4.43;;;;;;;10.01;100.00;101830.34;5021924;28;20064;-79
2021/09/21 03:29:49;;;;;;;6.20;4.15;;;;;;;10.01;100.00;101824.19;5015078;28;20037;-78
2021/09/21 03:32:15;;;;;;;5.90;4.07;;;;;;;9.97;100.00;101832.97;5023606;28;20055;-79
2021/09/21 03:34:42;;;;;;;6.38;4.68;;;;;;;10.01;100.00;101835.63;5030167;28;20087;-79
2021/09/21 03:37:10;;;;;;;5.28;3.92;;;;;;;9.97;100.00;101839.13;5005335;28;20041;-78
2021/09/21 03:39:38;;;;;;;7.13;5.00;;;;;;;9.95;100.00;101835.63;5015302;28;20041;-78
2021/09/21 03:42:05;;;;;;;6.32;4.43;;;;;;;9.96;100.00;101832.09;5030011;28;20044;-78
2021/09/21 03:44:31;;;;;;;6.70;4.90;;;;;;;9.98;100.00;101842.66;5016346;28;20041;-78
2021/09/21 03:46:58;;;;;;;6.25;4.22;;;;;;;9.93;100.00;101841.78;5006595;28;20453;-79
2021/09/21 03:49:25;;;;;;;6.18;4.07;;;;;;;9.87;100.00;101835.59;5023316;28;20112;-78
2021/09/21 03:51:52;;;;;;;6.80;4.95;;;;;;;9.87;100.00;101827.69;5018995;28;20098;-79
2021/09/21 03:54:18;;;;;;;7.53;4.95;;;;;;;9.88;100.00;101841.75;5024234;28;20052;-79
2021/09/21 03:56:45;;;;;;;6.55;4.45;;;;;;;9.85;100.00;101837.38;5012151;28;20033;-79
2021/09/21 03:59:12;;;;;;;6.65;4.30;;;;;;;9.91;100.00;101848.78;5011104;28;20060;-78
2021/09/21 04:01:38;;;;;;;6.40;3.88;;;;;;;9.85;100.00;101853.19;5013226;28;20048;-80
2021/09/21 04:04:05;;;;;;;7.15;4.47;;;;;;;9.85;100.00;101857.59;4997435;28;20547;-78
2021/09/21 04:06:33;;;;;;;5.80;4.32;;;;;;;9.82;100.00;101857.56;5024486;28;20645;-79
2021/09/21 04:09:00;;;;;;;7.45;5.10;;;;;;;9.81;100.00;101858.47;5008566;28;20040;-78
2021/09/21 04:11:28;;;;;;;5.82;4.03;;;;;;;9.83;100.00;101860.22;5018377;28;20044;-78
2021/09/21 04:13:59;;;;;;;5.15;3.95;;;;;;;9.79;100.00;101861.09;5021236;28;20053;-78
2021/09/21 04:16:28;;;;;;;8.15;5.07;;;;;;;9.80;100.00;101861.97;5026734;28;20033;-78
2021/09/21 04:18:56;;;;;;;7.68;5.18;;;;;;;9.74;100.00;101867.22;5026833;28;20044;-79
2021/09/21 04:21:24;;;;;;;5.97;4.30;;;;;;;9.78;100.00;101869.03;5021667;28;20106;-79
2021/09/21 04:23:52;;;;;;;6.22;4.10;;;;;;;9.78;100.00;101866.38;5019900;28;20075;-78
2021/09/21 04:26:18;;;;;;;7.85;4.78;;;;;;;9.71;100.00;101873.41;5027438;28;20086;-79
2021/09/21 04:28:45;;;;;;;7.15;4.47;;;;;;;9.73;100.00;101870.75;5013060;28;20041;-79
2021/09/21 04:31:21;;;;;;;6.38;3.90;;;;;;;9.70;100.00;101868.13;5013741;28;20049;-79
2021/09/21 04:33:48;;;;;;;7.20;4.40;;;;;;;9.72;100.00;101866.34;5012227;28;20059;-78
2021/09/21 04:36:15;;;;;;;6.35;4.40;;;;;;;9.70;100.00;101871.63;4997896;28;20102;-79
2021/09/21 04:38:41;;;;;;;5.55;4.50;;;;;;;9.70;100.00;101873.41;5027637;28;20406;-79
2021/09/21 04:41:09;;;;;;;6.40;4.10;;;;;;;9.71;100.00;101867.25;5024460;28;20518;-80
2021/09/21 04:43:37;;;;;;;6.97;4.63;;;;;;;9.71;100.00;101864.59;5013861;28;20052;-80
2021/09/21 04:46:05;;;;;;;8.93;5.25;;;;;;;9.73;100.00;101863.72;5048365;28;20064;-79
2021/09/21 04:48:32;;;;;;;7.20;4.72;;;;;;;9.72;100.00;101863.72;5010252;28;20043;-80
2021/09/21 04:50:59;;;;;;;6.57;4.72;;;;;;;9.72;100.00;101861.97;5013454;28;20048;-80
2021/09/21 04:53:26;;;;;;;5.80;4.18;;;;;;;9.72;100.00;101869.00;5028061;28;20060;-80
2021/09/21 04:55:53;;;;;;;6.28;4.32;;;;;;;9.74;100.00;101869.88;5014291;28;20037;-80
2021/09/21 04:58:20;;;;;;;9.05;4.35;;;;;;;9.74;100.00;101869.88;5027826;28;20442;-79
2021/09/21 05:00:49;;;;;;;7.55;4.97;;;;;;;9.73;100.00;101866.34;5009913;28;20541;-79
2021/09/21 05:03:19;;;;;;;6.68;5.05;;;;;;;9.74;100.00;101867.22;5008193;28;20048;-79
2021/09/21 05:05:46;;;;;;;7.28;4.30;;;;;;;9.72;100.00;101875.16;5028631;28;20045;-81
2021/09/21 05:08:13;;;;;;;6.80;4.55;;;;;;;9.73;100.00;101869.00;5013438;28;20041;-81
2021/09/21 05:10:39;;;;;;;7.03;5.00;;;;;;;9.71;100.00;101876.03;4994807;28;20041;-81
2021/09/21 05:13:06;;;;;;;7.13;4.70;;;;;;;9.77;100.00;101881.34;5021330;28;20513;-82
2021/09/21 05:15:33;;;;;;;7.18;4.90;;;;;;;9.81;100.00;101884.84;5043917;28;20041;-81
2021/09/21 05:17:59;;;;;;;7.55;5.00;;;;;;;9.84;100.00;101893.69;5009971;28;20041;-81
2021/09/21 05:20:26;;;;;;;6.45;4.13;;;;;;;9.77;100.00;101893.66;5031220;28;20049;-81
2021/09/21 05:22:54;;;;;;;6.45;4.30;;;;;;;9.77;100.00;101891.00;5009626;28;20041;-81
2021/09/21 05:25:21;;;;;;;8.02;4.95;;;;;;;9.79;100.00;101898.06;5007853;28;20041;-81
2021/09/21 05:27:48;;;;;;;10.82;4.43;;;;;;;9.81;100.00;101890.13;4992672;28;20037;-81
2021/09/21 05:30:16;;;;;;;6.78;4.07;;;;;;;9.85;100.00;101898.06;5008254;28;20040;-81
2021/09/21 05:32:42;;;;;;;9.20;5.20;;;;;;;9.95;100.00;101906.00;5029832;28;20041;-81
2021/09/21 05:35:09;;;;;;;6.45;4.20;;;;;;;9.98;100.00;101906.00;5012752;28;20045;-82
2021/09/21 05:37:36;;;;;;;7.78;4.78;;;;;;;10.04;100.00;101903.38;4985590;28;20049;-81
2021/09/21 05:40:04;;;;;;;7.38;4.63;;;;;;;9.98;100.00;101893.69;5018259;28;20033;-81
2021/09/21 05:42:31;;;;;;;5.85;4.35;;;;;;;9.99;100.00;101889.28;5014484;28;20041;-81
2021/09/21 05:44:57;;;;;;;7.55;4.95;;;;;;;10.01;100.00;101893.72;5030756;28;20056;-82
2021/09/21 05:47:24;;;;;;;8.38;5.55;;;;;;;10.05;100.00;101891.94;5032588;28;20049;-82
2021/09/21 05:49:51;;;;;;;7.65;4.85;;;;;;;10.10;100.00;101896.34;5017465;28;20037;-81
2021/09/21 05:52:17;;;;;;;7.35;4.85;;;;;;;10.14;100.00;101907.78;5049678;28;20037;-82
2021/09/21 05:54:44;;;;;;;7.05;5.00;;;;;;;10.16;100.00;101912.19;5000241;28;20049;-81
2021/09/21 05:57:11;;;;;;;8.32;4.80;;;;;;;10.20;100.00;101921.00;5016654;28;20041;-81
2021/09/21 05:59:37;;;;;;;8.77;4.60;;;;;;;10.16;100.00;101917.47;5027148;28;20577;-81
2021/09/21 06:02:04;;;;;;;7.88;5.32;;;;;;;10.21;100.00;101917.50;5001350;28;20045;-81
2021/09/21 06:04:33;;;;;;;6.80;5.20;;;;;;;10.24;100.00;101930.72;5030429;28;20048;-81
2021/09/21 06:07:01;;;;;;;7.13;4.65;;;;;;;10.27;100.00;101916.66;4998913;28;20095;-83
2021/09/21 06:09:28;;;;;;;7.78;4.95;;;;;;;10.29;100.00;101920.19;5034042;28;20102;-82
2021/09/21 06:11:54;;;;;;;9.88;5.28;;;;;;;10.39;100.00;101922.81;5026141;28;20091;-81
2021/09/21 06:14:21;;;;;;;6.50;4.57;;;;;;;10.40;100.00;101921.94;5035672;28;20037;-80
2021/09/21 06:16:49;;;;;;;7.13;4.95;;;;;;;10.39;100.00;101921.94;5020996;28;20041;-81
2021/09/21 06:19:15;;;;;;;6.97;4.78;;;;;;;10.42;100.00;101920.19;5020367;28;20041;-80
2021/09/21 06:21:44;;;;;;;7.40;4.68;;;;;;;10.49;100.00;101930.75;5033782;28;20040;-81
2021/09/21 06:24:13;;;;;;;8.32;5.13;;;;;;;10.61;100.00;101929.00;5026962;28;20053;-81
2021/09/21 06:26:40;;;;;;;9.23;4.82;;;;;;;10.62;100.00;101936.03;5009362;28;20056;-82
2021/09/21 06:29:06;;;;;;;6.22;4.80;;;;;;;10.67;100.00;101943.94;5027395;28;20048;-80
2021/09/21 06:31:33;;;;;;;6.43;3.67;;;;;;;10.70;100.00;101950.13;5025315;28;20172;-80
2021/09/21 06:34:00;;;;;;;6.53;4.50;;;;;;;10.74;100.00;101951.00;4994072;28;20517;-80
2021/09/21 06:36:27;;;;;;;6.57;4.10;;;;;;;10.79;100.00;101938.66;5013556;28;20046;-81
2021/09/21 06:38:53;;;;;;;6.57;4.70;;;;;;;10.84;100.00;101938.66;4997519;28;20773;-81
2021/09/21 06:41:20;;;;;;;6.38;4.38;;;;;;;10.87;100.00;101946.59;5009820;28;21719;-80
2021/09/21 06:43:47;;;;;;;6.22;4.45;;;;;;;10.89;100.00;101943.06;5047917;28;20379;-80
2021/09/21 06:46:13;;;;;;;7.22;5.03;;;;;;;10.97;100.00;101951.84;5012856;28;20049;-80
2021/09/21 06:48:40;;;;;;;7.93;5.07;;;;;;;11.02;100.00;101951.88;5015136;28;20033;-79
2021/09/21 06:51:08;;;;;;;7.90;4.57;;;;;;;11.04;100.00;101952.75;5015312;28;20033;-81
2021/09/21 06:53:35;;;;;;;7.00;4.45;;;;;;;10.97;100.00;101943.94;5031054;28;20037;-80
2021/09/21 06:56:02;;;;;;;5.25;4.25;;;;;;;10.98;100.00;101937.75;4997431;28;20041;-80
2021/09/21 06:58:29;;;;;;;9.70;5.60;;;;;;;10.97;100.00;101932.47;5012529;28;20041;-79
2021/09/21 07:00:56;;;;;;;7.10;5.05;;;;;;;11.02;100.00;101935.13;5028013;28;20047;-81
2021/09/21 07:03:23;;;;;;;8.43;5.40;;;;;;;11.11;100.00;101941.28;5017407;28;20045;-82
2021/09/21 07:05:50;;;;;;;7.32;5.35;;;;;;;11.32;100.00;101950.03;5001629;28;20033;-80
2021/09/21 07:08:18;;;;;;;6.32;4.07;;;;;;;11.31;100.00;101951.78;5032469;28;20456;-79
2021/09/21 07:10:45;;;;;;;6.10;4.38;;;;;;;11.35;100.00;101952.66;5008418;28;20037;-79
2021/09/21 07:13:14;;;;;;;7.88;5.13;;;;;;;11.46;100.00;101951.75;5011390;28;20060;-79
2021/09/21 07:15:41;;;;;;;35.08;25.27;;;;;;;11.60;100.00;101962.25;5017123;28;20484;-79
2021/09/21 07:18:11;;;;;;;27.67;21.05;;;;;;;11.67;100.00;101961.34;4996425;28;20138;-79
2021/09/21 07:20:38;;;;;;;10.43;8.82;;;;;;;11.79;100.00;101960.44;5011726;28;21856;-81
2021/09/21 07:23:04;;;;;;;11.45;6.93;;;;;;;11.92;100.00;101964.81;5023399;28;20602;-79
2021/09/21 07:25:32;;;;;;;7.72;4.13;;;;;;;12.10;100.00;101955.88;5021185;28;20041;-79
2021/09/21 07:28:02;;;;;;;6.90;4.57;;;;;;;12.15;100.00;101961.16;5013926;28;20043;-79
2021/09/21 07:30:33;;;;;;;8.52;4.80;;;;;;;12.17;100.00;101962.91;5015590;23;20725;-80
2021/09/21 07:33:00;;;;;;;6.55;4.65;;;;;;;12.19;98.54;101973.47;4982289;28;20591;-85
2021/09/21 07:35:27;;;;;;;6.82;4.93;;;;;;;12.32;97.69;101978.69;4978012;28;20049;-81
2021/09/21 07:37:54;;;;;;;7.05;6.00;;;;;;;12.44;97.55;101983.03;4974841;28;20076;-80
2021/09/21 07:40:21;;;;;;;5.85;4.38;;;;;;;12.52;93.38;101981.19;4977232;28;20038;-82
2021/09/21 07:42:48;;;;;;;5.43;4.43;;;;;;;12.61;92.45;101981.16;4976553;28;20050;-80
2021/09/21 07:45:16;;;;;;;4.90;4.18;;;;;;;12.67;93.89;101980.22;4989887;28;20677;-80
2021/09/21 07:47:42;;;;;;;6.15;4.32;;;;;;;12.73;93.92;101985.47;4945842;28;20056;-80
2021/09/21 07:50:11;;;;;;;9.20;4.43;;;;;;;12.81;91.05;101974.81;4970292;28;20066;-82
2021/09/21 07:52:38;;;;;;;7.28;4.38;;;;;;;12.88;90.80;101974.72;4958758;28;20573;-81
2021/09/21 07:55:05;;;;;;;7.15;5.18;;;;;;;13.00;90.25;101976.38;4977710;28;20048;-79
2021/09/21 07:57:33;;;;;;;5.80;5.20;;;;;;;13.25;87.60;101979.72;4976627;28;20129;-81
2021/09/21 08:00:00;;;;;;;5.88;4.63;;;;;;;13.38;87.73;101984.00;4970621;28;20042;-83
2021/09/21 08:02:27;;;;;;;5.10;4.03;;;;;;;13.32;84.86;101972.56;4991170;28;20133;-85
2021/09/21 08:04:54;;;;;;;5.15;3.60;;;;;;;13.27;83.31;101980.56;4993341;28;20074;-80
2021/09/21 08:07:21;;;;;;;5.38;3.47;;;;;;;13.36;83.50;101974.28;4991378;28;20041;-81
2021/09/21 08:09:48;;;;;;;5.47;3.85;;;;;;;13.48;84.09;101976.81;4977260;28;20040;-80
2021/09/21 08:12:15;;;;;;;5.22;4.00;;;;;;;13.60;82.57;101962.50;4992475;28;20141;-79
2021/09/21 08:14:45;;;;;;;5.15;3.85;;;;;;;13.61;82.25;101964.25;5009596;28;20046;-80
2021/09/21 08:17:11;;;;;;;4.82;3.72;;;;;;;13.53;80.19;101962.56;4972948;28;20046;-82
2021/09/21 08:19:38;;;;;;;5.72;3.92;;;;;;;13.59;75.48;101963.41;4990611;28;20038;-80
2021/09/21 08:22:05;;;;;;;5.78;3.75;;;;;;;13.55;79.34;101965.22;4987552;28;20058;-81
2021/09/21 08:24:32;;;;;;;5.57;4.05;;;;;;;13.79;80.22;101961.38;4989522;28;20042;-84
2021/09/21 08:26:59;;;;;;;5.20;4.15;;;;;;;13.83;76.78;101962.22;4991636;28;20053;-80
2021/09/21 08:29:26;;;;;;;6.30;5.25;;;;;;;13.79;77.42;101964.91;4989186;28;20096;-79
2021/09/21 08:31:52;;;;;;;5.95;3.90;;;;;;;14.00;75.75;101970.84;4992191;28;20042;-79
2021/09/21 08:34:19;;;;;;;4.18;3.22;;;;;;;14.17;75.15;101965.28;5009382;28;20042;-78
2021/09/21 08:36:49;;;;;;;8.70;7.82;;;;;;;14.16;73.21;101969.72;4988797;28;20043;-79
2021/09/21 08:39:16;;;;;;;5.93;3.60;;;;;;;14.14;72.81;101966.22;4957190;28;20466;-79
2021/09/21 08:41:43;;;;;;;4.22;3.42;;;;;;;14.26;75.50;101959.81;4974439;28;20403;-80
2021/09/21 08:44:10;;;;;;;4.32;3.42;;;;;;;14.39;75.23;101964.06;4969749;28;20048;-79
2021/09/21 08:46:39;;;;;;;5.38;3.85;;;;;;;14.48;74.03;101974.59;5004523;28;20042;-80
2021/09/21 08:49:08;;;;;;;5.18;3.97;;;;;;;14.59;73.09;101977.94;4987189;28;20042;-79
2021/09/21 08:51:35;;;;;;;9.38;8.15;;;;;;;14.63;70.42;101979.69;5009259;28;20454;-81
2021/09/21 08:54:02;;;;;;;6.80;5.30;;;;;;;14.79;70.65;101977.59;4992063;28;20038;-79
2021/09/21 08:56:28;;;;;;;4.95;3.63;;;;;;;14.71;69.76;101983.97;4964493;28;20695;-78
2021/09/21 08:59:12;;;;;;;5.00;4.50;;;;;;;14.83;69.99;101983.78;4959377;28;20046;-81
2021/09/21 09:01:49;;;;;;;7.03;4.63;;;;;;;14.88;70.11;101982.81;4991992;28;20045;-80
2021/09/21 09:04:17;;;;;;;5.45;4.55;;;;;;;14.90;68.33;101980.13;5004855;28;20573;-80
2021/09/21 09:06:50;;;;;;;5.97;4.05;;;;;;;15.04;65.52;101972.75;4963631;28;20096;-78
2021/09/21 09:09:22;;;;;;;4.13;3.15;;;;;;;15.06;67.06;101975.41;4977389;28;20427;-78
2021/09/21 09:12:04;;;;;;;4.55;3.47;;;;;;;15.02;65.32;101981.66;4990521;28;20030;-82
2021/09/21 09:14:42;;;;;;;4.72;3.17;;;;;;;14.86;64.64;101978.38;5017904;28;20060;-84
2021/09/21 09:17:12;;;;;;;5.07;3.17;;;;;;;14.98;67.10;101972.88;4983453;28;20068;-84
2021/09/21 09:19:49;;;;;;;3.92;3.25;;;;;;;14.98;68.01;101967.56;4982972;28;20043;-82
2021/09/21 09:22:21;;;;;;;5.40;3.60;;;;;;;14.84;63.37;101964.25;4992054;28;20050;-81
2021/09/21 09:24:55;;;;;;;4.30;2.97;;;;;;;14.82;66.18;101950.97;4990718;28;20060;-80
2021/09/21 09:27:53;;;;;;;4.18;3.05;;;;;;;14.98;64.19;101953.38;5001438;28;20633;-81
2021/09/21 09:30:25;;;;;;;4.50;3.08;;;;;;;15.24;64.68;101951.09;4989883;28;20045;-81
2021/09/21 09:32:54;;;;;;;4.57;3.08;;;;;;;15.30;61.14;101956.31;5001308;28;20634;-82
2021/09/21 09:35:30;;;;;;;5.10;3.28;;;;;;;15.55;63.71;101950.47;5003800;28;20129;-81
2021/09/21 09:37:59;;;;;;;4.20;2.58;;;;;;;15.67;63.07;101943.16;4995166;28;20046;-81
2021/09/21 09:40:27;;;;;;;7.00;4.25;;;;;;;15.86;64.37;101938.28;4995847;28;20096;-81
2021/09/21 09:42:55;;;;;;;4.40;2.67;;;;;;;15.96;62.85;101944.28;4994612;28;20061;-81
2021/09/21 09:45:30;;;;;;;3.67;2.88;;;;;;;16.15;63.25;101945.66;4995514;28;20045;-82
2021/09/21 09:48:01;;;;;;;4.88;3.45;;;;;;;16.21;58.75;101940.16;4993839;28;20045;-80
2021/09/21 09:50:50;;;;;;;9.15;7.25;;;;;;;16.19;60.10;101943.78;4981807;28;20038;-82
2021/09/21 09:53:19;;;;;;;6.47;3.00;;;;;;;16.24;59.90;101949.88;4995052;28;20045;-81
2021/09/21 09:55:48;;;;;;;7.38;4.88;;;;;;;16.23;60.72;101951.69;4993454;28;20038;-82
2021/09/21 09:58:16;;;;;;;4.57;3.35;;;;;;;16.19;58.70;101951.78;4994213;28;20521;-81
2021/09/21 10:00:43;;;;;;;5.53;3.97;;;;;;;16.20;57.59;101953.53;4982818;28;20045;-81
2021/09/21 10:03:10;;;;;;;6.85;3.05;;;;;;;15.83;57.22;101954.34;5008844;28;20053;-81
2021/09/21 10:05:39;;;;;;;5.22;4.10;;;;;;;15.98;58.23;101940.69;4963059;28;20373;-81
2021/09/21 10:08:06;;;;;;;3.92;3.22;;;;;;;16.15;59.66;101942.09;4996683;28;20049;-80
2021/09/21 10:10:35;;;;;;;5.47;3.10;;;;;;;16.02;55.17;101933.50;4978567;28;20152;-81
2021/09/21 10:13:05;;;;;;;4.70;2.90;;;;;;;16.25;55.90;101927.63;4977543;28;20054;-81
2021/09/21 10:15:32;;;;;;;3.92;2.70;;;;;;;16.39;57.29;101936.16;4978875;28;20606;-81
2021/09/21 10:17:59;;;;;;;4.18;3.17;;;;;;;16.47;59.74;101950.19;4973974;28;20106;-82
2021/09/21 10:20:35;;;;;;;5.00;3.20;;;;;;;16.48;56.31;101949.31;4992807;28;20041;-81
2021/09/21 10:23:06;;;;;;;4.38;3.13;;;;;;;16.35;57.24;101957.63;4992338;28;20514;-82
2021/09/21 10:25:35;;;;;;;6.88;3.13;;;;;;;16.20;57.65;101954.41;4978438;28;20099;-81
2021/09/21 10:28:20;;;;;;;5.15;2.90;;;;;;;16.06;59.16;101967.19;4980693;28;20052;-79
2021/09/21 10:30:58;;;;;;;4.68;2.63;;;;;;;15.90;57.44;101963.09;4977213;28;20081;-81
2021/09/21 10:33:26;;;;;;;3.50;2.72;;;;;;;15.68;56.82;101968.00;4978903;28;20076;-82
2021/09/21 10:35:53;;;;;;;3.25;2.33;;;;;;;15.70;59.14;101974.16;4979225;28;20046;-81
2021/09/21 10:38:21;;;;;;;3.33;3.03;;;;;;;15.73;59.86;101980.31;4965222;28;20045;-81
2021/09/21 10:40:51;;;;;;;3.72;2.92;;;;;;;15.69;59.31;101983.94;5009982;28;20038;-81
2021/09/21 10:43:26;;;;;;;4.05;3.05;;;;;;;15.61;59.60;101990.34;4992706;28;20042;-81
2021/09/21 10:46:06;;;;;;;4.18;2.90;;;;;;;15.43;57.47;101995.09;4993070;28;20049;-80
2021/09/21 10:48:36;;;;;;;4.97;2.90;;;;;;;15.37;58.49;101991.66;4986375;28;20093;-79
2021/09/21 10:51:04;;;;;;;3.80;2.88;;;;;;;15.30;59.14;101996.25;4970268;28;20514;-81
2021/09/21 10:53:31;;;;;;;3.10;2.53;;;;;;;15.16;57.96;101995.63;4976659;28;20574;-81
2021/09/21 10:56:03;;;;;;;4.55;3.10;;;;;;;15.04;60.03;102001.13;5010655;28;20108;-81
2021/09/21 10:58:31;;;;;;;4.15;2.90;;;;;;;14.96;61.99;102000.41;4976873;28;20042;-82
2021/09/21 11:00:58;;;;;;;4.75;2.97;;;;;;;15.00;62.66;102004.78;4976747;28;20053;-82
2021/09/21 11:03:26;;;;;;;4.53;3.30;;;;;;;14.74;62.29;102010.53;4961479;28;20070;-81
2021/09/21 11:05:55;;;;;;;4.65;3.05;;;;;;;14.70;62.22;102006.16;4973993;28;20046;-82
2021/09/21 11:08:29;;;;;;;3.60;3.15;;;;;;;14.76;62.07;102008.72;4950948;28;20042;-82
2021/09/21 11:11:00;;;;;;;3.80;2.58;;;;;;;14.87;65.53;102004.09;4970420;28;20042;-82
2021/09/21 11:13:32;;;;;;;4.57;2.95;;;;;;;14.83;63.78;102007.72;5009124;28;20038;-82
2021/09/21 11:16:01;;;;;;;3.72;3.22;;;;;;;14.91;65.10;101997.84;5010303;28;20077;-81
2021/09/21 11:18:28;;;;;;;5.95;3.28;;;;;;;14.92;65.37;101994.25;4994463;28;20134;-82
2021/09/21 11:20:57;;;;;;;4.63;3.20;;;;;;;14.96;62.16;101995.94;4993559;28;20042;-82
2021/09/21 11:23:27;;;;;;;4.20;3.03;;;;;;;15.03;62.49;101986.94;4990180;28;20053;-82
2021/09/21 11:26:00;;;;;;;3.45;2.75;;;;;;;15.00;64.17;101980.81;4973708;28;20057;-82
2021/09/21 11:28:35;;;;;;;5.18;3.10;;;;;;;14.97;62.96;101973.78;4974050;28;20042;-81
2021/09/21 11:31:02;;;;;;;5.78;3.10;;;;;;;15.02;63.61;101971.91;4960804;28;20052;-81
2021/09/21 11:33:32;;;;;;;4.32;3.03;;;;;;;15.07;63.03;101972.69;4955148;28;20081;-80
2021/09/21 11:36:01;;;;;;;5.03;3.25;;;;;;;15.04;63.33;101975.41;4960268;28;20053;-81
2021/09/21 11:38:29;;;;;;;5.90;3.80;;;;;;;14.68;61.64;101973.38;4986071;28;20045;-81